Dai2kousei — JD2542 — position and weather

sailwx.info

Track history (hours):
 
Tides and Currents Weather Stations Pressure Air Temp Water Temp Dewpoint Dewpoint Depression Visibility Wind Speed Wind Dir Waves Ship Positions

Dai2kousei

Last reported at 2016-Dec-03 01:33 UTC. Time now 2016-Dec-03 02:30 UTC.
Position N 35°28' E 139°46'.

Length 77 m; draft 3.7 m.

MMSI: 431000467.

Date/timePositionNaut miles runAvg speedWind from/ knotsBaromVisibWave heightAir tempDewpointWater temp
2016-Dec-03 01:33N 35°28' E 139°46'0 0.0
2016-Dec-03 00:33N 35°28' E 139°46'0 0.1
2016-Dec-02 23:33N 35°28' E 139°46'0 0.0
2016-Dec-02 22:33N 35°28' E 139°46'0 0.0
2016-Dec-02 21:33N 35°28' E 139°46'0 0.0
2016-Dec-02 20:33N 35°28' E 139°46'0 0.1
2016-Dec-02 19:33N 35°28' E 139°46'0 0.0
2016-Dec-02 18:33N 35°28' E 139°46'0 0.0
2016-Dec-02 17:33N 35°28' E 139°46'0 0.0
2016-Dec-02 16:33N 35°28' E 139°46'0 0.0
2016-Dec-02 15:33N 35°28' E 139°46'0 0.0
2016-Dec-02 14:33N 35°28' E 139°46'0 0.0
2016-Dec-02 13:33N 35°28' E 139°46'0 0.0
2016-Dec-02 12:33N 35°28' E 139°46'0 0.0
2016-Dec-02 11:33N 35°28' E 139°46'0 0.1
2016-Dec-02 10:33N 35°28' E 139°46'0 0.0
2016-Dec-02 09:33N 35°28' E 139°46'0 0.0
2016-Dec-02 08:33N 35°28' E 139°46'3 2.6
2016-Dec-02 07:33N 35°26' E 139°46'1611.3
2016-Dec-02 06:08N 35°10' E 139°46'  
2016-Nov-29 10:09N 35°10' E 139°46'712.4
2016-Nov-29 09:33N 35°17' E 139°45'1110.5
2016-Nov-29 08:33N 35°27' E 139°48'1511.6
2016-Nov-29 07:16N 35°33' E 140°05'3 0.3
2016-Nov-28 19:33N 35°33' E 140°01'1110.5
2016-Nov-28 18:33N 35°28' E 139°50'5 4.8
2016-Nov-28 17:33N 35°29' E 139°44'0 0.0
2016-Nov-28 16:33N 35°29' E 139°44'0 0.0
2016-Nov-28 15:33N 35°29' E 139°44'0 0.0
2016-Nov-28 14:33N 35°29' E 139°44'0 0.0
2016-Nov-28 13:33N 35°29' E 139°44'0 0.0
2016-Nov-28 12:33N 35°29' E 139°44'0 0.0
2016-Nov-28 11:33N 35°29' E 139°44'0 0.0
2016-Nov-28 10:33N 35°29' E 139°44'0 0.0
2016-Nov-28 09:33N 35°29' E 139°44'0 0.0
2016-Nov-28 08:33N 35°29' E 139°44'0 0.0
2016-Nov-28 07:33N 35°29' E 139°44'0 0.0
2016-Nov-28 06:33N 35°29' E 139°44'0 0.0
2016-Nov-28 05:33N 35°29' E 139°44'0 0.0
2016-Nov-28 04:33N 35°29' E 139°44'0 0.0
2016-Nov-28 03:33N 35°29' E 139°44'0 0.0
2016-Nov-28 02:33N 35°29' E 139°44'0 0.0
2016-Nov-28 01:33N 35°29' E 139°44'0 0.0
2016-Nov-28 00:33N 35°29' E 139°44'0 0.0
2016-Nov-27 23:33N 35°29' E 139°44'0 0.0
2016-Nov-27 22:33N 35°29' E 139°44'0 0.0
2016-Nov-27 21:33N 35°29' E 139°44'0 0.0
2016-Nov-27 20:33N 35°29' E 139°44'0 0.0
2016-Nov-27 19:33N 35°29' E 139°44'0 0.0
2016-Nov-27 18:33N 35°29' E 139°44'0 0.0
2016-Nov-27 17:33N 35°29' E 139°44'0 0.0
2016-Nov-27 16:33N 35°29' E 139°44'0 0.0
2016-Nov-27 15:33N 35°29' E 139°44'0 0.0
2016-Nov-27 14:33N 35°29' E 139°44'7 7.4
2016-Nov-27 13:33N 35°22' E 139°45'10 9.8
2016-Nov-27 12:33N 35°12' E 139°47'  
Track history (hours):
 
Tides and Currents Weather Stations Pressure Air Temp Water Temp Dewpoint Dewpoint Depression Visibility Wind Speed Wind Dir Waves Ship Positions

Dai2kousei

Last reported at 2016-Dec-03 01:33 UTC. Time now 2016-Dec-03 02:30 UTC.
Position N 35°28' E 139°46'.

Length 77 m; draft 3.7 m.

MMSI: 431000467.

Date/timePositionNaut miles runAvg speedWind from/ knotsBaromVisibWave heightAir tempDewpointWater temp
2016-Dec-03 01:33N 35°28' E 139°46'0 0.0
2016-Dec-03 00:33N 35°28' E 139°46'0 0.1
2016-Dec-02 23:33N 35°28' E 139°46'0 0.0
2016-Dec-02 22:33N 35°28' E 139°46'0 0.0
2016-Dec-02 21:33N 35°28' E 139°46'0 0.0
2016-Dec-02 20:33N 35°28' E 139°46'0 0.1
2016-Dec-02 19:33N 35°28' E 139°46'0 0.0
2016-Dec-02 18:33N 35°28' E 139°46'0 0.0
2016-Dec-02 17:33N 35°28' E 139°46'0 0.0
2016-Dec-02 16:33N 35°28' E 139°46'0 0.0
2016-Dec-02 15:33N 35°28' E 139°46'0 0.0
2016-Dec-02 14:33N 35°28' E 139°46'0 0.0
2016-Dec-02 13:33N 35°28' E 139°46'0 0.0
2016-Dec-02 12:33N 35°28' E 139°46'0 0.0
2016-Dec-02 11:33N 35°28' E 139°46'0 0.1
2016-Dec-02 10:33N 35°28' E 139°46'0 0.0
2016-Dec-02 09:33N 35°28' E 139°46'0 0.0
2016-Dec-02 08:33N 35°28' E 139°46'3 2.6
2016-Dec-02 07:33N 35°26' E 139°46'1611.3
2016-Dec-02 06:08N 35°10' E 139°46'  
2016-Nov-29 10:09N 35°10' E 139°46'712.4
2016-Nov-29 09:33N 35°17' E 139°45'1110.5
2016-Nov-29 08:33N 35°27' E 139°48'1511.6
2016-Nov-29 07:16N 35°33' E 140°05'3 0.3
2016-Nov-28 19:33N 35°33' E 140°01'1110.5
2016-Nov-28 18:33N 35°28' E 139°50'5 4.8
2016-Nov-28 17:33N 35°29' E 139°44'0 0.0
2016-Nov-28 16:33N 35°29' E 139°44'0 0.0
2016-Nov-28 15:33N 35°29' E 139°44'0 0.0
2016-Nov-28 14:33N 35°29' E 139°44'0 0.0
2016-Nov-28 13:33N 35°29' E 139°44'0 0.0
2016-Nov-28 12:33N 35°29' E 139°44'0 0.0
2016-Nov-28 11:33N 35°29' E 139°44'0 0.0
2016-Nov-28 10:33N 35°29' E 139°44'0 0.0
2016-Nov-28 09:33N 35°29' E 139°44'0 0.0
2016-Nov-28 08:33N 35°29' E 139°44'0 0.0
2016-Nov-28 07:33N 35°29' E 139°44'0 0.0
2016-Nov-28 06:33N 35°29' E 139°44'0 0.0
2016-Nov-28 05:33N 35°29' E 139°44'0 0.0
2016-Nov-28 04:33N 35°29' E 139°44'0 0.0
2016-Nov-28 03:33N 35°29' E 139°44'0 0.0
2016-Nov-28 02:33N 35°29' E 139°44'0 0.0
2016-Nov-28 01:33N 35°29' E 139°44'0 0.0
2016-Nov-28 00:33N 35°29' E 139°44'0 0.0
2016-Nov-27 23:33N 35°29' E 139°44'0 0.0
2016-Nov-27 22:33N 35°29' E 139°44'0 0.0
2016-Nov-27 21:33N 35°29' E 139°44'0 0.0
2016-Nov-27 20:33N 35°29' E 139°44'0 0.0
2016-Nov-27 19:33N 35°29' E 139°44'0 0.0
2016-Nov-27 18:33N 35°29' E 139°44'0 0.0
2016-Nov-27 17:33N 35°29' E 139°44'0 0.0
2016-Nov-27 16:33N 35°29' E 139°44'0 0.0
2016-Nov-27 15:33N 35°29' E 139°44'0 0.0
2016-Nov-27 14:33N 35°29' E 139°44'7 7.4
2016-Nov-27 13:33N 35°22' E 139°45'10 9.8
2016-Nov-27 12:33N 35°12' E 139°47'  

Dump ship's entire track history